Time;durP1;ratioP1;P1;durP2;ratioP2;P2;SDS_P1;SDS_P2;PMS_P1;PMS_P2;Temp;Humidity;BMP_temperature;BMP_pressure;BME280_temperature;BME280_humidity;BME280_pressure;Samples;Min_cycle;Max_cycle;Signal;HPM_P1;HPM_P2
2022/05/24 00:00:20;;;;;;;4.42;3.00;;;;;;;7.74;90.87;98905.53;1658248;85;20973;-67
2022/05/24 00:02:47;;;;;;;4.12;2.83;;;;;;;7.70;91.27;98906.54;1668159;85;21124;-67
2022/05/24 00:05:15;;;;;;;7.12;3.87;;;;;;;7.66;91.63;98908.40;1672822;84;21037;-67
2022/05/24 00:07:42;;;;;;;4.53;3.60;;;;;;;7.65;91.88;98909.75;1667729;85;21088;-67
2022/05/24 00:10:12;;;;;;;5.50;2.92;;;;;;;7.63;92.27;98907.67;1706578;82;21174;-67
2022/05/24 00:12:39;;;;;;;4.53;2.90;;;;;;;7.61;92.62;98911.16;1701460;82;21062;-67
2022/05/24 00:15:27;;;;;;;5.15;3.22;;;;;;;7.61;92.87;98908.57;1671648;85;21092;-67
2022/05/24 00:18:07;;;;;;;3.35;2.70;;;;;;;7.61;93.02;98910.31;1701257;82;21212;-67
2022/05/24 00:20:40;;;;;;;3.58;2.90;;;;;;;7.61;93.28;98911.61;1728347;81;20942;-66
2022/05/24 00:23:07;;;;;;;3.45;3.15;;;;;;;7.59;93.39;98913.44;1670806;84;21897;-66
2022/05/24 00:25:37;;;;;;;3.95;2.70;;;;;;;7.54;93.36;98911.47;1679261;84;21065;-69
2022/05/24 00:28:04;;;;;;;4.37;2.62;;;;;;;7.49;93.40;98909.50;1668735;84;21028;-68
2022/05/24 00:30:31;;;;;;;4.97;3.10;;;;;;;7.44;93.48;98908.83;1675462;84;21210;-68
2022/05/24 00:33:00;;;;;;;3.85;3.50;;;;;;;7.39;93.82;98908.17;1657995;84;21024;-66
2022/05/24 00:35:26;;;;;;;4.53;3.42;;;;;;;7.34;94.29;98908.79;1665268;84;21812;-66
2022/05/24 00:37:53;;;;;;;6.25;3.40;;;;;;;7.31;94.69;98913.63;1660917;85;21061;-67
2022/05/24 00:40:47;;;;;;;3.65;2.95;;;;;;;7.30;94.92;98913.67;1667565;84;20975;-68
2022/05/24 00:43:35;;;;;;;4.25;3.20;;;;;;;7.29;95.23;98915.87;1666891;84;21022;-66
2022/05/24 00:46:22;;;;;;;4.87;3.50;;;;;;;7.25;95.41;98914.68;1727940;81;21569;-66
2022/05/24 00:48:52;;;;;;;4.40;3.40;;;;;;;7.24;95.52;98910.86;1720209;81;21280;-67
2022/05/24 00:51:28;;;;;;;3.83;3.17;;;;;;;7.20;95.52;98921.76;1698882;82;21494;-66
2022/05/24 00:53:55;;;;;;;6.58;3.50;;;;;;;7.18;95.63;98922.30;1703905;82;21043;-66
2022/05/24 00:56:56;;;;;;;5.78;3.10;;;;;;;7.16;95.58;98921.95;1704241;82;21484;-66
2022/05/24 00:59:46;;;;;;;5.37;3.25;;;;;;;7.10;95.68;98926.89;1715598;82;20994;-66
2022/05/24 01:02:15;;;;;;;4.42;3.20;;;;;;;7.05;95.81;98922.32;1714878;82;21414;-67
2022/05/24 01:04:42;;;;;;;3.65;3.22;;;;;;;7.02;96.12;98929.34;1708296;81;20991;-67
2022/05/24 01:07:09;;;;;;;5.30;3.35;;;;;;;6.99;96.15;98923.86;1701334;83;21007;-66
2022/05/24 01:10:00;;;;;;;4.22;3.20;;;;;;;6.97;96.24;98928.23;1707130;82;21534;-67
2022/05/24 01:12:37;;;;;;;4.40;3.60;;;;;;;6.94;96.15;98925.75;1702351;82;20998;-68
2022/05/24 01:15:06;;;;;;;4.42;3.42;;;;;;;6.89;96.19;98925.06;1702293;82;21506;-67
2022/05/24 01:17:33;;;;;;;3.62;3.20;;;;;;;6.86;96.33;98929.89;1712921;82;21011;-67
2022/05/24 01:20:00;;;;;;;5.78;3.90;;;;;;;6.84;96.49;98916.17;1711390;82;20988;-67
2022/05/24 01:22:57;;;;;;;4.45;3.77;;;;;;;6.82;96.56;98921.84;1704958;82;20956;-67
2022/05/24 01:25:53;;;;;;;4.65;3.65;;;;;;;6.81;96.74;98924.47;1720943;81;21089;-67
2022/05/24 01:28:28;;;;;;;3.80;3.10;;;;;;;6.79;96.70;98924.56;1717683;82;21309;-67
2022/05/24 01:30:56;;;;;;;4.95;2.90;;;;;;;6.77;96.61;98920.33;1717476;81;21060;-67
2022/05/24 01:36:12;;;;;;;6.70;2.95;;;;;;;6.74;96.88;98921.73;1718194;81;20953;-67
2022/05/24 01:38:54;;;;;;;6.42;3.35;;;;;;;6.72;97.06;98924.36;1717003;82;21418;-67
2022/05/24 01:41:24;;;;;;;6.42;3.90;;;;;;;6.69;97.23;98919.74;1726343;81;21126;-67
2022/05/24 01:43:54;;;;;;;4.40;3.50;;;;;;;6.67;97.50;98926.25;1718616;81;21464;-67
2022/05/24 01:46:26;;;;;;;4.70;3.20;;;;;;;6.65;97.39;98922.88;1712425;81;21165;-67
2022/05/24 01:49:00;;;;;;;4.05;2.75;;;;;;;6.60;97.36;98927.80;1721098;81;21084;-67
2022/05/24 01:51:31;;;;;;;3.55;2.75;;;;;;;6.56;97.46;98925.79;1720940;81;20971;-66
2022/05/24 01:54:01;;;;;;;12.33;3.27;;;;;;;6.52;97.65;98930.66;1721295;81;21758;-67
2022/05/24 01:56:45;;;;;;;5.50;3.20;;;;;;;6.47;97.86;98926.93;1707579;82;21097;-67
2022/05/24 01:59:13;;;;;;;4.90;3.00;;;;;;;6.42;98.12;98930.11;1708265;82;20938;-66
2022/05/24 02:01:54;;;;;;;3.17;2.58;;;;;;;6.38;98.45;98925.96;1704751;82;21042;-66
2022/05/24 02:04:22;;;;;;;3.45;3.15;;;;;;;6.38;98.56;98929.84;1702988;83;21407;-67
2022/05/24 02:07:12;;;;;;;3.75;3.35;;;;;;;6.38;98.86;98929.84;1701178;83;21289;-67
2022/05/24 02:09:41;;;;;;;7.60;3.55;;;;;;;6.39;99.12;98934.11;1670935;84;20971;-67
2022/05/24 02:12:19;;;;;;;25.08;5.20;;;;;;;6.41;99.25;98936.16;1674261;84;21118;-67
2022/05/24 02:15:00;;;;;;;4.40;3.60;;;;;;;6.43;99.38;98927.08;1672946;84;20991;-67
2022/05/24 02:17:46;;;;;;;7.17;4.33;;;;;;;6.47;99.27;98924.80;1706538;82;21119;-67
2022/05/24 02:20:17;;;;;;;12.88;4.15;;;;;;;6.50;99.07;98931.16;1720023;81;21167;-66
2022/05/24 02:22:45;;;;;;;7.08;4.87;;;;;;;6.59;99.25;98932.15;1662829;84;21010;-66
2022/05/24 02:25:20;;;;;;;7.87;4.53;;;;;;;6.74;99.39;98932.91;1677051;84;21079;-66
2022/05/24 02:27:47;;;;;;;4.50;3.85;;;;;;;6.95;99.07;98936.48;1708749;82;21027;-67
2022/05/24 02:30:18;;;;;;;5.92;4.42;;;;;;;7.19;98.35;98926.53;1713623;82;21537;-66
2022/05/24 02:32:47;;;;;;;9.40;4.00;;;;;;;7.48;97.64;98933.69;1720326;81;21881;-66
2022/05/24 02:35:13;;;;;;;3.05;2.75;;;;;;;7.77;96.32;98929.55;1720629;81;21046;-67
2022/05/24 02:37:42;;;;;;;3.92;3.52;;;;;;;8.08;95.03;98934.36;1714627;81;21010;-66
2022/05/24 02:42:55;;;;;;;3.80;2.85;;;;;;;8.72;92.39;98938.69;1699670;82;20963;-68
2022/05/24 02:45:22;;;;;;;4.15;2.80;;;;;;;9.09;90.46;98937.94;1674628;84;21787;-68
2022/05/24 02:47:49;;;;;;;6.58;3.22;;;;;;;9.44;89.05;98937.66;1676948;84;21451;-68
2022/05/24 02:50:16;;;;;;;4.85;3.00;;;;;;;9.87;87.27;98943.02;1709406;82;21006;-68
2022/05/24 02:52:43;;;;;;;4.25;2.77;;;;;;;10.31;85.11;98934.44;1706374;82;21522;-68
2022/05/24 02:55:12;;;;;;;3.62;2.80;;;;;;;10.74;83.16;98931.01;1712430;82;20947;-68
2022/05/24 02:57:40;;;;;;;3.20;2.90;;;;;;;11.11;80.82;98937.30;1709181;82;21908;-66
2022/05/24 03:00:15;;;;;;;5.75;2.90;;;;;;;11.54;78.93;98942.39;1704851;82;21081;-67
2022/05/24 03:02:42;;;;;;;3.47;3.05;;;;;;;11.94;76.75;98937.19;1705624;82;20967;-67
2022/05/24 03:05:10;;;;;;;5.95;2.87;;;;;;;12.35;74.67;98936.16;1673829;84;20951;-66
2022/05/24 03:10:26;;;;;;;3.80;3.12;;;;;;;13.18;70.97;98940.47;1718975;82;21944;-67
2022/05/24 03:15:42;;;;;;;2.67;2.47;;;;;;;14.11;67.21;98945.94;1709270;81;20966;-67
2022/05/24 03:18:09;;;;;;;3.60;2.80;;;;;;;14.51;65.02;98942.91;1703098;83;21106;-67
2022/05/24 03:20:36;;;;;;;4.20;2.52;;;;;;;14.89;63.23;98946.06;1665033;84;21570;-66
2022/05/24 03:23:03;;;;;;;5.30;3.05;;;;;;;15.13;61.97;98943.09;1666234;84;21265;-67
2022/05/24 03:25:32;;;;;;;5.28;3.10;;;;;;;15.48;60.97;98939.34;1671711;85;21662;-68
2022/05/24 03:27:59;;;;;;;4.80;3.02;;;;;;;15.85;59.38;98938.44;1657556;84;21022;-68
2022/05/24 03:30:27;;;;;;;4.08;2.80;;;;;;;16.23;58.00;98941.39;1658018;85;21032;-68
2022/05/24 03:32:54;;;;;;;3.77;2.87;;;;;;;16.60;56.70;98942.62;1651344;85;21079;-68
2022/05/24 03:35:21;;;;;;;4.28;3.27;;;;;;;17.04;55.46;98941.45;1657951;85;21163;-68
2022/05/24 03:37:50;;;;;;;27.32;6.30;;;;;;;17.47;54.02;98946.04;1708374;82;21557;-68
2022/05/24 03:40:17;;;;;;;7.05;3.17;;;;;;;17.83;53.16;98950.22;1704219;82;21007;-68
2022/05/24 03:42:45;;;;;;;5.70;2.87;;;;;;;18.23;51.87;98947.38;1672843;85;21478;-68
2022/05/24 03:45:13;;;;;;;3.60;3.08;;;;;;;18.65;50.71;98947.97;1669832;84;21198;-68
2022/05/24 03:47:40;;;;;;;5.22;3.35;;;;;;;19.03;49.38;98944.28;1656141;84;21214;-69
2022/05/24 03:50:09;;;;;;;3.77;3.02;;;;;;;19.35;48.31;98952.11;1713800;82;21553;-68
2022/05/24 03:52:37;;;;;;;6.75;3.08;;;;;;;19.65;47.62;98952.60;1724991;81;20987;-67
2022/05/24 03:55:05;;;;;;;7.55;3.60;;;;;;;19.98;46.26;98950.16;1701698;82;21014;-68
2022/05/24 04:00:19;;;;;;;4.60;3.20;;;;;;;20.52;44.67;98952.33;1712173;82;21222;-69
2022/05/24 04:02:46;;;;;;;5.37;3.10;;;;;;;20.81;43.62;98954.94;1724402;82;21050;-68
2022/05/24 04:05:12;;;;;;;9.45;2.52;;;;;;;20.96;42.79;98958.01;1706454;82;20973;-68
2022/05/24 04:07:39;;;;;;;5.15;2.95;;;;;;;21.04;42.48;98950.18;1716041;82;21459;-68
2022/05/24 04:10:08;;;;;;;4.45;2.20;;;;;;;21.15;42.02;98951.36;1712152;82;20991;-67
2022/05/24 04:12:35;;;;;;;3.02;2.52;;;;;;;21.34;41.66;98954.95;1710815;82;21789;-69
2022/05/24 04:15:02;;;;;;;4.17;2.80;;;;;;;21.57;41.01;98945.69;1712414;82;21050;-68
2022/05/24 04:17:29;;;;;;;10.50;3.15;;;;;;;21.70;40.38;98951.47;1719968;82;21006;-66
2022/05/24 04:19:56;;;;;;;11.45;6.55;;;;;;;21.77;40.52;98955.70;1707030;82;20982;-67
2022/05/24 04:22:22;;;;;;;4.58;3.37;;;;;;;21.82;39.70;98956.89;1725587;82;21023;-66
2022/05/24 04:24:49;;;;;;;4.90;3.08;;;;;;;21.77;39.44;98957.85;1714414;82;21798;-66
2022/05/24 04:27:15;;;;;;;4.58;2.83;;;;;;;21.76;39.36;98959.31;1715892;82;20944;-66
2022/05/24 04:29:42;;;;;;;4.53;2.72;;;;;;;21.97;39.11;98964.71;1712459;82;20967;-66
2022/05/24 04:32:09;;;;;;;6.85;3.10;;;;;;;22.14;38.93;98963.59;1708190;82;20963;-66
2022/05/24 04:34:37;;;;;;;4.00;2.80;;;;;;;22.31;38.76;98961.45;1722250;82;21006;-67
2022/05/24 04:37:07;;;;;;;4.37;2.50;;;;;;;22.52;37.97;98963.32;1710486;82;21135;-67
2022/05/24 04:39:35;;;;;;;2.83;2.52;;;;;;;22.57;36.73;98965.03;1711402;82;21098;-66
2022/05/24 04:42:19;;;;;;;2.65;2.37;;;;;;;22.46;36.10;98966.56;1715122;81;21170;-67
2022/05/24 04:44:48;;;;;;;2.72;2.45;;;;;;;22.34;36.09;98958.52;1716242;81;21101;-66
2022/05/24 04:47:15;;;;;;;4.05;2.67;;;;;;;22.40;35.89;98961.03;1728086;81;21081;-67
2022/05/24 04:49:46;;;;;;;6.92;2.95;;;;;;;22.47;35.26;98960.78;1728271;80;21150;-67
2022/05/24 04:52:14;;;;;;;7.58;4.00;;;;;;;22.42;35.10;98971.82;1704358;81;21107;-66
2022/05/24 04:54:42;;;;;;;8.78;2.83;;;;;;;22.46;34.98;98961.76;1701439;81;21030;-66
2022/05/24 04:57:09;;;;;;;3.25;2.70;;;;;;;22.58;34.20;98964.55;1722833;80;21530;-66
2022/05/24 04:59:36;;;;;;;6.58;3.10;;;;;;;22.49;34.07;98962.78;1728029;80;21125;-67
2022/05/24 05:02:04;;;;;;;2.52;2.33;;;;;;;22.43;34.32;98966.03;1722873;82;21241;-67
2022/05/24 05:04:31;;;;;;;5.60;2.80;;;;;;;22.53;34.32;98964.16;1721954;82;21168;-66
2022/05/24 05:06:58;;;;;;;6.55;3.77;;;;;;;22.72;34.13;98961.84;1700884;82;21063;-66
2022/05/24 05:09:24;;;;;;;7.00;3.10;;;;;;;22.80;33.86;98967.22;1719764;82;21094;-67
2022/05/24 05:11:51;;;;;;;10.68;3.27;;;;;;;22.97;33.66;98960.59;1716686;82;21197;-68
2022/05/24 05:14:19;;;;;;;4.75;2.90;;;;;;;23.11;33.63;98961.84;1718717;82;21518;-67
2022/05/24 05:16:46;;;;;;;5.67;2.85;;;;;;;23.27;32.84;98961.11;1710249;82;21008;-67
2022/05/24 05:19:13;;;;;;;10.63;3.20;;;;;;;23.30;32.51;98964.78;1723330;81;21035;-67
2022/05/24 05:21:41;;;;;;;9.05;3.83;;;;;;;23.35;32.58;98962.50;1723053;81;21449;-67
2022/05/24 05:24:08;;;;;;;10.25;3.50;;;;;;;23.39;32.12;98967.80;1755734;81;21030;-68
2022/05/24 05:26:35;;;;;;;9.28;3.85;;;;;;;23.33;31.16;98970.61;1744420;81;21073;-67
2022/05/24 05:29:01;;;;;;;3.60;2.77;;;;;;;23.14;31.57;98966.02;1708269;81;21094;-67
2022/05/24 05:31:29;;;;;;;2.77;2.55;;;;;;;23.14;31.08;98965.52;1731579;81;20985;-67
2022/05/24 05:33:58;;;;;;;6.95;2.60;;;;;;;23.03;30.71;98963.09;1722712;81;21181;-66
2022/05/24 05:36:25;;;;;;;7.33;2.55;;;;;;;22.75;30.99;98965.52;1740221;81;21167;-66
2022/05/24 05:38:52;;;;;;;7.22;3.22;;;;;;;22.64;30.96;98969.22;1717892;81;21347;-66
2022/05/24 05:41:22;;;;;;;7.30;2.87;;;;;;;22.64;30.73;98973.19;1737347;80;21082;-66
2022/05/24 05:43:49;;;;;;;7.30;3.15;;;;;;;22.70;30.47;98971.27;1736639;81;21007;-67
2022/05/24 05:46:15;;;;;;;5.22;3.33;;;;;;;22.63;30.02;98973.69;1762777;81;21011;-65
2022/05/24 05:48:42;;;;;;;3.42;2.30;;;;;;;22.34;30.43;98979.70;1746324;81;21466;-65
2022/05/24 05:51:10;;;;;;;4.90;2.27;;;;;;;22.24;30.33;98980.25;1714735;81;21123;-67
2022/05/24 05:53:37;;;;;;;4.50;2.80;;;;;;;21.93;30.64;98985.84;1720962;81;21062;-67
2022/05/24 05:56:05;;;;;;;3.45;2.92;;;;;;;21.59;31.19;98985.55;1735671;81;21517;-67
2022/05/24 05:58:32;;;;;;;7.83;3.00;;;;;;;21.44;31.46;98986.16;1719210;81;21027;-67
2022/05/24 06:01:00;;;;;;;3.80;2.52;;;;;;;21.19;31.80;98977.84;1725891;81;21351;-68
2022/05/24 06:03:27;;;;;;;5.25;2.80;;;;;;;20.91;32.36;98984.86;1732756;81;21164;-69
2022/05/24 06:05:54;;;;;;;3.35;2.55;;;;;;;20.69;32.59;98979.86;1748394;80;21049;-69
2022/05/24 06:08:21;;;;;;;7.17;2.95;;;;;;;20.46;32.97;98978.45;1716870;81;21053;-71
2022/05/24 06:10:50;;;;;;;12.00;3.12;;;;;;;20.32;33.41;98969.59;1723386;81;21015;-70
2022/05/24 06:13:20;;;;;;;3.60;2.67;;;;;;;20.23;33.84;98972.06;1717007;82;21046;-72
2022/05/24 06:15:48;;;;;;;3.02;2.42;;;;;;;20.16;33.60;98973.60;1680489;83;21141;-70
2022/05/24 06:18:15;;;;;;;4.03;2.52;;;;;;;20.08;33.62;98971.28;1709996;82;21009;-69
2022/05/24 06:20:44;;;;;;;3.08;2.50;;;;;;;20.07;33.81;98976.20;1706375;83;21464;-68
2022/05/24 06:23:11;;;;;;;5.08;2.60;;;;;;;20.01;33.98;98978.06;1704675;83;21092;-69
2022/05/24 06:25:39;;;;;;;2.55;2.20;;;;;;;19.94;34.29;98983.06;1707986;82;21055;-69
2022/05/24 06:28:06;;;;;;;3.50;2.10;;;;;;;19.89;34.07;98983.45;1705502;82;21893;-70
2022/05/24 06:30:33;;;;;;;3.92;2.45;;;;;;;19.85;33.71;98983.85;1702996;83;20965;-69
2022/05/24 06:33:00;;;;;;;2.62;1.90;;;;;;;19.67;31.10;98986.77;1703350;83;20988;-71
2022/05/24 06:35:27;;;;;;;3.58;2.33;;;;;;;19.38;31.54;98987.45;1670018;83;21655;-69
2022/05/24 06:37:54;;;;;;;2.95;2.10;;;;;;;19.05;32.15;98994.23;1702662;83;21215;-69
2022/05/24 06:40:21;;;;;;;2.85;1.90;;;;;;;18.83;32.24;98992.07;1699896;83;22121;-70
2022/05/24 06:42:48;;;;;;;3.08;1.95;;;;;;;18.68;32.22;98993.83;1704091;82;20985;-68
2022/05/24 06:45:15;;;;;;;2.62;2.00;;;;;;;18.55;32.18;98990.02;1704977;83;21036;-70
2022/05/24 06:47:42;;;;;;;3.80;2.30;;;;;;;18.48;32.55;98991.47;1708205;82;20952;-69
2022/05/24 06:50:10;;;;;;;2.77;2.08;;;;;;;18.36;33.25;98988.53;1701997;82;20956;-69
2022/05/24 06:52:37;;;;;;;3.75;2.20;;;;;;;18.29;33.03;98989.50;1717451;82;21237;-68
2022/05/24 06:55:06;;;;;;;3.10;2.05;;;;;;;18.27;33.18;98987.46;1702071;83;21615;-69
2022/05/24 06:57:33;;;;;;;5.12;2.00;;;;;;;18.24;32.97;98991.66;1703934;81;21067;-69
2022/05/24 07:02:49;;;;;;;3.27;1.82;;;;;;;18.06;29.56;98997.08;1699806;82;21096;-70
2022/05/24 07:05:19;;;;;;;2.75;1.87;;;;;;;17.88;30.19;98996.27;1714278;82;21265;-69
2022/05/24 07:07:45;;;;;;;3.87;2.20;;;;;;;17.82;30.64;98997.22;1705804;82;20995;-69
2022/05/24 07:10:17;;;;;;;6.25;2.15;;;;;;;17.81;31.26;99000.80;1703439;83;21077;-69
2022/05/24 07:12:45;;;;;;;5.97;5.37;;;;;;;17.82;31.55;99001.16;1706788;83;21104;-68
2022/05/24 07:15:12;;;;;;;4.40;4.00;;;;;;;17.88;31.71;99001.52;1662764;85;21132;-67
2022/05/24 07:17:39;;;;;;;4.00;2.60;;;;;;;17.94;30.30;98998.06;1700463;82;21189;-69
2022/05/24 07:20:08;;;;;;;5.55;2.50;;;;;;;17.94;30.16;99005.48;1709103;82;21090;-69
2022/05/24 07:22:37;;;;;;;3.37;1.72;;;;;;;17.93;29.51;99004.28;1702510;82;20995;-75
2022/05/24 07:25:06;;;;;;;3.58;1.90;;;;;;;17.85;29.34;99005.71;1690188;83;21032;-70
2022/05/24 07:27:35;;;;;;;3.25;1.60;;;;;;;17.77;29.76;99000.71;1657238;83;21007;-69
2022/05/24 07:30:04;;;;;;;2.75;1.92;;;;;;;17.73;30.06;99004.05;1693421;83;21224;-70
2022/05/24 07:32:31;;;;;;;4.50;1.65;;;;;;;17.75;29.72;98998.20;1701337;83;21068;-71
2022/05/24 07:34:59;;;;;;;2.60;2.20;;;;;;;17.76;30.50;99005.13;1664982;84;21141;-69
2022/05/24 07:37:27;;;;;;;3.60;1.62;;;;;;;17.83;30.03;99004.16;1679702;84;21108;-69
2022/05/24 07:45:48;;;;;;;3.87;2.17;;;;;;;17.89;29.39;99010.26;1671567;84;21216;-68
2022/05/24 07:47:55;;;;;;;2.02;1.85;;;;;;;17.88;29.73;99019.11;1685351;83;21434;-70
2022/05/24 07:50:21;;;;;;;1.87;1.55;;;;;;;17.93;28.31;99014.33;1703356;82;21224;-72
2022/05/24 07:52:49;;;;;;;2.52;1.90;;;;;;;17.92;28.98;99015.77;1670365;84;21137;-69
2022/05/24 07:55:16;;;;;;;4.58;1.90;;;;;;;17.96;28.75;99015.41;1672219;84;21150;-69
2022/05/24 07:57:43;;;;;;;2.95;1.55;;;;;;;18.02;28.62;99018.84;1706125;81;21065;-70
2022/05/24 08:00:12;;;;;;;3.15;1.77;;;;;;;18.04;28.77;99014.78;1717197;81;21032;-71
2022/05/24 08:02:39;;;;;;;3.33;1.75;;;;;;;18.07;29.26;99014.06;1716302;81;20979;-71
2022/05/24 08:05:07;;;;;;;3.70;1.37;;;;;;;18.16;28.79;99010.71;1688386;81;21005;-70
2022/05/24 08:07:34;;;;;;;4.87;2.47;;;;;;;18.25;27.52;99010.44;1738052;81;21202;-70
2022/05/24 08:10:00;;;;;;;3.42;2.90;;;;;;;18.27;28.29;99011.63;1729906;81;20960;-71
2022/05/24 08:12:27;;;;;;;7.05;1.90;;;;;;;18.31;28.59;99013.91;1700875;82;21648;-71
2022/05/24 08:14:54;;;;;;;2.08;1.50;;;;;;;18.37;28.77;99016.53;1708632;81;21167;-71
2022/05/24 08:17:20;;;;;;;2.52;1.67;;;;;;;18.41;27.94;99001.66;1667073;83;21038;-71
2022/05/24 08:19:47;;;;;;;2.80;1.70;;;;;;;18.41;27.98;99004.29;1683518;84;21164;-67
2022/05/24 08:22:13;;;;;;;2.60;1.72;;;;;;;18.39;28.18;98995.67;1702419;82;21530;-68
2022/05/24 08:24:40;;;;;;;4.12;1.70;;;;;;;18.42;28.24;99007.28;1675774;83;21104;-69
2022/05/24 08:27:11;;;;;;;1.87;1.55;;;;;;;18.46;28.58;99002.13;1707397;82;21456;-70
2022/05/24 08:29:40;;;;;;;5.90;1.80;;;;;;;18.49;28.06;99004.52;1696927;82;21531;-71
2022/05/24 08:32:09;;;;;;;;;;;;;;;18.41;28.49;99020.09;1692367;82;21124;-69
2022/05/24 08:34:35;;;;;;;2.20;1.67;;;;;;;18.36;27.94;99001.22;1716318;79;20245;-69
2022/05/24 08:37:02;;;;;;;2.62;1.67;;;;;;;18.34;28.25;99000.98;1663858;83;21572;-69
2022/05/24 08:39:29;;;;;;;2.83;2.00;;;;;;;18.39;28.37;99001.42;1710318;81;21201;-69
2022/05/24 08:42:29;;;;;;;3.35;1.80;;;;;;;18.46;28.28;99003.45;1697823;82;21078;-71
2022/05/24 08:48:22;;;;;;;2.00;1.70;;;;;;;18.55;28.53;98997.92;1714782;81;21596;-73
2022/05/24 08:51:05;;;;;;;5.35;2.20;;;;;;;18.66;28.17;98997.06;1711137;80;21251;-69
2022/05/24 08:53:42;;;;;;;4.53;2.00;;;;;;;18.68;28.47;98999.09;1706597;80;21017;-68
2022/05/24 08:56:19;;;;;;;3.02;2.10;;;;;;;18.73;28.38;99008.78;1704537;80;20974;-70
2022/05/24 08:58:57;;;;;;;2.37;1.93;;;;;;;18.78;27.53;99007.92;1707566;82;21136;-69
2022/05/24 09:01:32;;;;;;;1.98;1.60;;;;;;;18.79;27.38;98999.03;1676177;83;20958;-69
2022/05/24 09:03:56;;;;;;;2.75;2.35;;;;;;;18.79;27.33;98995.08;1708958;82;21358;-71
2022/05/24 09:06:56;;;;;;;2.62;1.95;;;;;;;18.84;27.76;98997.70;1707404;82;21026;-69
2022/05/24 09:09:56;;;;;;;3.60;1.87;;;;;;;18.93;27.36;99006.17;1640237;84;21594;-70
2022/05/24 09:12:47;;;;;;;4.90;1.70;;;;;;;18.91;27.44;98996.23;1638327;85;21300;-69
2022/05/24 09:15:38;;;;;;;2.77;1.80;;;;;;;18.86;27.07;98998.89;1639518;85;21039;-69
2022/05/24 09:18:23;;;;;;;3.22;1.70;;;;;;;18.82;27.25;99002.25;1635968;85;21033;-69
2022/05/24 09:20:50;;;;;;;3.55;1.70;;;;;;;18.82;27.35;98999.62;1593800;85;21174;-69
2022/05/24 09:23:46;;;;;;;4.03;1.80;;;;;;;18.85;26.80;98999.37;1688053;82;21114;-69
2022/05/24 09:26:20;;;;;;;2.27;1.60;;;;;;;18.86;26.83;98998.89;1692653;83;21149;-70
2022/05/24 09:29:01;;;;;;;2.30;1.70;;;;;;;18.95;26.58;98991.55;1692757;83;20983;-71
2022/05/24 09:31:49;;;;;;;1.75;1.50;;;;;;;19.04;26.65;98985.98;1663484;83;21530;-70
2022/05/24 09:34:31;;;;;;;2.08;1.35;;;;;;;19.13;25.75;98987.85;1677575;83;21120;-68
2022/05/24 09:37:13;;;;;;;3.85;2.10;;;;;;;19.09;25.82;98999.12;1681832;83;22137;-70
2022/05/24 09:39:42;;;;;;;2.25;1.52;;;;;;;19.04;25.71;98993.88;1699464;83;21193;-69
2022/05/24 09:42:30;;;;;;;2.33;1.52;;;;;;;19.05;25.88;98991.60;1690581;83;21073;-69
2022/05/24 09:45:15;;;;;;;3.98;2.35;;;;;;;19.13;25.68;98991.33;1696732;83;20999;-69
2022/05/24 09:47:50;;;;;;;2.20;1.60;;;;;;;19.22;26.09;98989.70;1682650;83;21463;-69
2022/05/24 09:50:36;;;;;;;1.75;1.65;;;;;;;19.40;26.08;98990.77;1704251;83;21030;-69
2022/05/24 09:53:23;;;;;;;3.02;1.60;;;;;;;19.56;25.70;98990.34;1714791;82;21106;-68
2022/05/24 09:56:07;;;;;;;2.20;1.32;;;;;;;19.67;25.58;99002.60;1703267;82;21691;-69
2022/05/24 09:58:40;;;;;;;2.77;1.80;;;;;;;19.70;25.20;98997.06;1721472;82;21113;-70
2022/05/24 10:01:13;;;;;;;1.87;1.40;;;;;;;19.74;24.86;98992.72;1711097;82;21062;-69
2022/05/24 10:03:47;;;;;;;3.83;1.50;;;;;;;19.77;24.73;98992.45;1710539;82;21556;-69
2022/05/24 10:06:21;;;;;;;1.40;1.25;;;;;;;19.79;24.90;98993.61;1707042;82;21158;-70
2022/05/24 10:09:06;;;;;;;1.70;1.35;;;;;;;19.82;23.97;98986.27;1724588;82;21550;-69
2022/05/24 10:11:52;;;;;;;2.02;1.30;;;;;;;19.80;24.11;98991.33;1730702;82;21101;-69
2022/05/24 10:14:44;;;;;;;6.67;1.70;;;;;;;19.81;23.64;98989.04;1703802;81;21096;-69
2022/05/24 10:17:37;;;;;;;1.62;1.27;;;;;;;19.82;23.63;98983.62;1704609;81;21688;-70
2022/05/24 10:20:33;;;;;;;2.98;1.60;;;;;;;19.82;24.18;98977.03;1723140;80;21175;-69
2022/05/24 10:23:31;;;;;;;3.75;1.80;;;;;;;19.86;25.12;98984.20;1719003;81;20975;-69
2022/05/24 10:26:28;;;;;;;5.12;1.45;;;;;;;19.86;24.37;98981.56;1717605;81;21530;-67
2022/05/24 10:29:20;;;;;;;1.52;1.27;;;;;;;19.82;24.37;98975.71;1732047;81;21206;-70
2022/05/24 10:31:58;;;;;;;2.77;1.50;;;;;;;19.84;24.16;98972.45;1708502;82;21070;-69
2022/05/24 10:38:20;;;;;;;2.72;1.52;;;;;;;20.03;23.89;98976.12;1677634;83;21030;-70
2022/05/24 10:41:19;;;;;;;2.45;1.50;;;;;;;20.05;23.37;98974.19;1677999;83;21786;-70
2022/05/24 10:44:12;;;;;;;4.80;1.42;;;;;;;20.02;24.02;98975.77;1682805;83;21067;-68
2022/05/24 10:46:45;;;;;;;3.67;1.72;;;;;;;20.00;24.81;98967.15;1698242;81;21207;-70
2022/05/24 10:49:48;;;;;;;1.77;1.30;;;;;;;20.03;24.33;98956.33;1711985;82;21209;-72
2022/05/24 10:52:54;;;;;;;4.33;1.83;;;;;;;20.06;25.18;98967.94;1710016;81;21069;-71
2022/05/24 10:55:31;;;;;;;2.87;1.40;;;;;;;20.11;24.71;98967.89;1711484;81;21097;-69
2022/05/24 10:58:09;;;;;;;3.30;1.60;;;;;;;20.10;24.54;98969.34;1708066;81;21078;-69
2022/05/24 11:00:52;;;;;;;2.25;1.52;;;;;;;20.07;24.57;98974.40;1691812;82;21103;-71
2022/05/24 11:03:26;;;;;;;4.17;1.45;;;;;;;20.07;24.68;98975.72;1696050;83;22172;-71
2022/05/24 11:06:07;;;;;;;6.67;1.72;;;;;;;20.08;24.37;98967.31;1686441;83;21082;-69
2022/05/24 11:08:41;;;;;;;3.42;1.65;;;;;;;20.12;24.81;98965.59;1703061;81;22395;-69
2022/05/24 11:11:48;;;;;;;3.33;1.62;;;;;;;20.21;24.65;98967.89;1708088;83;21049;-70
2022/05/24 11:14:35;;;;;;;3.37;1.52;;;;;;;20.25;24.59;98952.96;1701779;83;21080;-71
2022/05/24 11:17:02;;;;;;;3.37;1.35;;;;;;;20.33;24.48;98954.92;1705839;81;21235;-71
2022/05/24 11:19:39;;;;;;;2.47;1.40;;;;;;;20.37;24.40;98959.00;1671573;83;21081;-71
2022/05/24 11:22:20;;;;;;;2.35;1.60;;;;;;;20.34;24.50;98953.12;1679270;83;21172;-70
2022/05/24 11:24:58;;;;;;;3.85;1.82;;;;;;;20.29;24.74;98951.72;1702725;83;20986;-71
2022/05/24 11:27:47;;;;;;;3.75;2.15;;;;;;;20.25;24.88;98952.96;1700008;83;21885;-71
2022/05/24 11:30:19;;;;;;;2.72;1.70;;;;;;;20.30;24.92;98952.56;1707062;83;21115;-69
2022/05/24 11:32:56;;;;;;;6.40;1.75;;;;;;;20.35;23.92;98954.31;1700049;83;21128;-72
2022/05/24 11:35:26;;;;;;;1.55;1.40;;;;;;;20.41;23.94;98960.38;1699778;83;20992;-69
2022/05/24 11:38:00;;;;;;;2.85;1.70;;;;;;;20.41;23.99;98949.80;1699111;82;21057;-70
2022/05/24 11:40:49;;;;;;;3.72;1.32;;;;;;;20.42;24.00;98949.32;1699362;83;21164;-70
2022/05/24 11:43:39;;;;;;;3.87;2.00;;;;;;;20.41;23.60;98951.61;1702531;83;22507;-70
2022/05/24 11:46:27;;;;;;;2.72;1.30;;;;;;;20.36;24.05;98959.94;1703362;83;21164;-70
2022/05/24 11:48:59;;;;;;;2.33;1.35;;;;;;;20.35;24.11;98954.31;1703547;83;21101;-69
2022/05/24 11:51:48;;;;;;;1.77;1.42;;;;;;;20.36;24.32;98948.55;1658993;84;21535;-69
2022/05/24 11:54:24;;;;;;;1.75;1.65;;;;;;;20.41;24.11;98953.77;1702820;82;21207;-68
2022/05/24 11:57:09;;;;;;;3.17;1.60;;;;;;;20.50;24.23;98956.91;1703218;83;21224;-69
2022/05/24 11:59:46;;;;;;;5.78;1.60;;;;;;;20.53;24.23;98959.28;1703775;83;21188;-69
2022/05/24 12:02:33;;;;;;;3.33;1.45;;;;;;;20.56;24.10;98964.30;1703856;83;21018;-68
2022/05/24 12:08:01;;;;;;;1.77;1.42;;;;;;;20.57;24.33;98965.13;1699973;83;21018;-70
2022/05/24 12:11:07;;;;;;;3.35;1.40;;;;;;;20.58;23.63;98955.72;1696588;83;21229;-69
2022/05/24 12:13:40;;;;;;;2.90;1.75;;;;;;;20.65;24.12;98956.00;1703363;83;21029;-69
2022/05/24 12:16:29;;;;;;;2.62;1.60;;;;;;;20.71;23.79;98961.22;1701642;83;21264;-70
2022/05/24 12:18:59;;;;;;;1.57;1.47;;;;;;;20.70;23.95;98964.35;1702989;83;21653;-69
2022/05/24 12:22:00;;;;;;;2.45;1.55;;;;;;;20.72;23.78;98952.33;1701712;82;20999;-69
2022/05/24 12:24:45;;;;;;;1.45;1.35;;;;;;;20.75;23.94;98950.73;1720981;82;21272;-69
2022/05/24 12:27:32;;;;;;;4.70;1.85;;;;;;;20.78;23.75;98957.05;1695427;82;20974;-70
2022/05/24 12:30:24;;;;;;;2.22;1.60;;;;;;;20.78;24.07;98959.22;1706805;82;21053;-69
2022/05/24 12:32:52;;;;;;;2.42;1.60;;;;;;;20.77;23.50;98956.22;1697712;82;21041;-71
2022/05/24 12:35:19;;;;;;;2.70;1.65;;;;;;;20.75;23.37;98962.62;1704009;82;21229;-71